Lignite, North Dakota
Current Conditions -  °F | °C
As of 2:00 AM on Friday 19 Dec 2014 (Local Time) from CYEN Reporting Station
Light Snow Light Snow  
Wind Chill: 18°   Ceiling: 500
Heat Index: 25°   Visibility: 4mi
Dew Point: 23°   Wind: 6mph
Humidity: 93%   Direction: 230°SW
Pressure: 29.91"   Gusts: NA
Location:  48.88°N, 102.56°W
Report Text: CYEN 190800Z 23005KT 4SM -SN BR OVC005 M04/M05 A2991 RMK SC8SLP165
Loading
Personal Weather Stations






























Interactive Weather Map New forecast layout! Learn more

10-Day Weather Forecast

Advertisements
Track Severe Weather on mobile